sensor_id;sensor_type;location;lat;lon;timestamp;temperature;humidity
51884;DHT22;37915;53.254;6.598;2023-08-06T00:00:27;13.80;99.90
51884;DHT22;37915;53.254;6.598;2023-08-06T00:02:52;13.80;99.90
51884;DHT22;37915;53.254;6.598;2023-08-06T00:05:18;13.80;99.90
51884;DHT22;37915;53.254;6.598;2023-08-06T00:07:46;13.80;99.90
51884;DHT22;37915;53.254;6.598;2023-08-06T00:10:12;13.80;99.90
51884;DHT22;37915;53.254;6.598;2023-08-06T00:12:38;13.80;99.90
51884;DHT22;37915;53.254;6.598;2023-08-06T00:15:04;13.80;99.90
51884;DHT22;37915;53.254;6.598;2023-08-06T00:17:29;13.80;99.90
51884;DHT22;37915;53.254;6.598;2023-08-06T00:19:55;13.80;99.90
51884;DHT22;37915;53.254;6.598;2023-08-06T00:22:21;13.80;99.90
51884;DHT22;37915;53.254;6.598;2023-08-06T00:24:46;13.80;99.90
51884;DHT22;37915;53.254;6.598;2023-08-06T00:27:12;13.80;99.90
51884;DHT22;37915;53.254;6.598;2023-08-06T00:29:38;13.80;99.90
51884;DHT22;37915;53.254;6.598;2023-08-06T00:32:03;13.80;99.90
51884;DHT22;37915;53.254;6.598;2023-08-06T00:34:29;13.80;99.90
51884;DHT22;37915;53.254;6.598;2023-08-06T00:36:55;13.80;99.90
51884;DHT22;37915;53.254;6.598;2023-08-06T00:39:20;13.80;99.90
51884;DHT22;37915;53.254;6.598;2023-08-06T00:41:46;13.80;99.90
51884;DHT22;37915;53.254;6.598;2023-08-06T00:44:12;13.80;99.90
51884;DHT22;37915;53.254;6.598;2023-08-06T00:46:38;13.80;99.90
51884;DHT22;37915;53.254;6.598;2023-08-06T00:49:05;13.80;99.90
51884;DHT22;37915;53.254;6.598;2023-08-06T00:51:31;13.80;99.90
51884;DHT22;37915;53.254;6.598;2023-08-06T00:53:57;13.80;99.90
51884;DHT22;37915;53.254;6.598;2023-08-06T00:56:24;13.80;99.90
51884;DHT22;37915;53.254;6.598;2023-08-06T00:58:50;13.90;99.90
51884;DHT22;37915;53.254;6.598;2023-08-06T01:01:15;13.80;99.90
51884;DHT22;37915;53.254;6.598;2023-08-06T01:03:41;13.80;99.90
51884;DHT22;37915;53.254;6.598;2023-08-06T01:06:07;13.80;99.90
51884;DHT22;37915;53.254;6.598;2023-08-06T01:14:04;13.80;99.90
51884;DHT22;37915;53.254;6.598;2023-08-06T01:16:33;13.70;99.90
51884;DHT22;37915;53.254;6.598;2023-08-06T01:18:59;13.80;99.90
51884;DHT22;37915;53.254;6.598;2023-08-06T01:21:24;13.80;99.90
51884;DHT22;37915;53.254;6.598;2023-08-06T01:23:50;13.80;99.90
51884;DHT22;37915;53.254;6.598;2023-08-06T01:29:14;13.80;99.90
51884;DHT22;37915;53.254;6.598;2023-08-06T01:31:43;13.80;99.90
51884;DHT22;37915;53.254;6.598;2023-08-06T01:34:17;13.80;99.90
51884;DHT22;37915;53.254;6.598;2023-08-06T01:36:43;13.80;99.90
51884;DHT22;37915;53.254;6.598;2023-08-06T01:39:10;13.80;99.90
51884;DHT22;37915;53.254;6.598;2023-08-06T01:41:35;13.80;99.90
51884;DHT22;37915;53.254;6.598;2023-08-06T01:44:01;13.80;99.90
51884;DHT22;37915;53.254;6.598;2023-08-06T01:46:27;13.80;99.90
51884;DHT22;37915;53.254;6.598;2023-08-06T01:48:52;13.80;99.90
51884;DHT22;37915;53.254;6.598;2023-08-06T01:51:18;13.80;99.90
51884;DHT22;37915;53.254;6.598;2023-08-06T01:53:44;13.80;99.90
51884;DHT22;37915;53.254;6.598;2023-08-06T01:56:09;13.80;99.90
51884;DHT22;37915;53.254;6.598;2023-08-06T01:58:35;13.80;99.90
51884;DHT22;37915;53.254;6.598;2023-08-06T02:01:01;13.80;99.90
51884;DHT22;37915;53.254;6.598;2023-08-06T02:03:27;13.80;99.90
51884;DHT22;37915;53.254;6.598;2023-08-06T02:05:53;13.80;99.90
51884;DHT22;37915;53.254;6.598;2023-08-06T02:08:19;13.90;99.90
51884;DHT22;37915;53.254;6.598;2023-08-06T02:10:45;13.90;99.90
51884;DHT22;37915;53.254;6.598;2023-08-06T02:13:11;13.90;99.90
51884;DHT22;37915;53.254;6.598;2023-08-06T02:15:42;13.80;99.90
51884;DHT22;37915;53.254;6.598;2023-08-06T02:18:08;13.90;99.90
51884;DHT22;37915;53.254;6.598;2023-08-06T02:20:34;13.80;99.90
51884;DHT22;37915;53.254;6.598;2023-08-06T02:23:00;13.80;99.90
51884;DHT22;37915;53.254;6.598;2023-08-06T02:25:25;13.80;99.90
51884;DHT22;37915;53.254;6.598;2023-08-06T02:27:51;13.90;99.90
51884;DHT22;37915;53.254;6.598;2023-08-06T02:30:17;13.90;99.90
51884;DHT22;37915;53.254;6.598;2023-08-06T02:32:42;13.80;99.90
51884;DHT22;37915;53.254;6.598;2023-08-06T02:35:08;13.90;99.90
51884;DHT22;37915;53.254;6.598;2023-08-06T02:37:34;13.80;99.90
51884;DHT22;37915;53.254;6.598;2023-08-06T02:40:00;13.80;99.90
51884;DHT22;37915;53.254;6.598;2023-08-06T02:42:25;13.90;99.90
51884;DHT22;37915;53.254;6.598;2023-08-06T02:44:52;13.90;99.90
51884;DHT22;37915;53.254;6.598;2023-08-06T02:47:20;13.90;99.90
51884;DHT22;37915;53.254;6.598;2023-08-06T02:49:46;13.90;99.90
51884;DHT22;37915;53.254;6.598;2023-08-06T02:52:12;13.90;99.90
51884;DHT22;37915;53.254;6.598;2023-08-06T02:54:38;13.90;99.90
51884;DHT22;37915;53.254;6.598;2023-08-06T02:57:05;13.90;99.90
51884;DHT22;37915;53.254;6.598;2023-08-06T02:59:31;13.90;99.90
51884;DHT22;37915;53.254;6.598;2023-08-06T03:01:57;13.90;99.90
51884;DHT22;37915;53.254;6.598;2023-08-06T03:04:22;13.90;99.90
51884;DHT22;37915;53.254;6.598;2023-08-06T03:06:51;14.00;99.90
51884;DHT22;37915;53.254;6.598;2023-08-06T03:09:17;14.00;99.90
51884;DHT22;37915;53.254;6.598;2023-08-06T03:11:43;13.90;99.90
51884;DHT22;37915;53.254;6.598;2023-08-06T03:14:09;13.90;99.90
51884;DHT22;37915;53.254;6.598;2023-08-06T03:16:35;13.90;99.90
51884;DHT22;37915;53.254;6.598;2023-08-06T03:19:00;14.00;99.90
51884;DHT22;37915;53.254;6.598;2023-08-06T03:21:26;13.90;99.90
51884;DHT22;37915;53.254;6.598;2023-08-06T03:23:52;14.00;99.90
51884;DHT22;37915;53.254;6.598;2023-08-06T03:26:18;13.90;99.90
51884;DHT22;37915;53.254;6.598;2023-08-06T03:28:43;14.00;99.90
51884;DHT22;37915;53.254;6.598;2023-08-06T03:31:09;14.00;99.90
51884;DHT22;37915;53.254;6.598;2023-08-06T03:33:35;14.00;99.90
51884;DHT22;37915;53.254;6.598;2023-08-06T03:36:01;14.00;99.90
51884;DHT22;37915;53.254;6.598;2023-08-06T03:38:27;14.00;99.90
51884;DHT22;37915;53.254;6.598;2023-08-06T03:40:53;14.00;99.90
51884;DHT22;37915;53.254;6.598;2023-08-06T03:43:19;14.00;99.90
51884;DHT22;37915;53.254;6.598;2023-08-06T03:45:45;14.00;99.90
51884;DHT22;37915;53.254;6.598;2023-08-06T03:48:10;14.00;99.90
51884;DHT22;37915;53.254;6.598;2023-08-06T03:50:36;13.90;99.90
51884;DHT22;37915;53.254;6.598;2023-08-06T03:53:02;14.00;99.90
51884;DHT22;37915;53.254;6.598;2023-08-06T03:55:28;14.00;99.90
51884;DHT22;37915;53.254;6.598;2023-08-06T03:57:53;13.90;99.90
51884;DHT22;37915;53.254;6.598;2023-08-06T04:00:19;14.00;99.90
51884;DHT22;37915;53.254;6.598;2023-08-06T04:02:45;14.00;99.90
51884;DHT22;37915;53.254;6.598;2023-08-06T04:05:11;14.00;99.90
51884;DHT22;37915;53.254;6.598;2023-08-06T04:07:37;14.00;99.90
51884;DHT22;37915;53.254;6.598;2023-08-06T04:10:04;14.00;99.90
51884;DHT22;37915;53.254;6.598;2023-08-06T04:12:30;14.00;99.90
51884;DHT22;37915;53.254;6.598;2023-08-06T04:14:58;14.00;99.90
51884;DHT22;37915;53.254;6.598;2023-08-06T04:17:24;14.00;99.90
51884;DHT22;37915;53.254;6.598;2023-08-06T04:19:54;14.00;99.90
51884;DHT22;37915;53.254;6.598;2023-08-06T04:22:20;14.00;99.90
51884;DHT22;37915;53.254;6.598;2023-08-06T04:24:47;14.00;99.90
51884;DHT22;37915;53.254;6.598;2023-08-06T04:27:14;14.00;99.90
51884;DHT22;37915;53.254;6.598;2023-08-06T04:29:40;14.00;99.90
51884;DHT22;37915;53.254;6.598;2023-08-06T04:32:07;14.00;99.90
51884;DHT22;37915;53.254;6.598;2023-08-06T04:34:34;13.90;99.90
51884;DHT22;37915;53.254;6.598;2023-08-06T04:37:00;14.00;99.90
51884;DHT22;37915;53.254;6.598;2023-08-06T04:39:26;14.00;99.90
51884;DHT22;37915;53.254;6.598;2023-08-06T04:41:51;14.00;99.90
51884;DHT22;37915;53.254;6.598;2023-08-06T04:44:17;14.00;99.90
51884;DHT22;37915;53.254;6.598;2023-08-06T04:46:43;14.00;99.90
51884;DHT22;37915;53.254;6.598;2023-08-06T04:49:08;14.00;99.90
51884;DHT22;37915;53.254;6.598;2023-08-06T04:51:34;14.00;99.90
51884;DHT22;37915;53.254;6.598;2023-08-06T04:54:00;14.10;99.90
51884;DHT22;37915;53.254;6.598;2023-08-06T04:56:26;14.00;99.90
51884;DHT22;37915;53.254;6.598;2023-08-06T04:58:52;14.00;99.90
51884;DHT22;37915;53.254;6.598;2023-08-06T05:01:18;14.00;99.90
51884;DHT22;37915;53.254;6.598;2023-08-06T05:03:43;14.00;99.90
51884;DHT22;37915;53.254;6.598;2023-08-06T05:06:09;14.00;99.90
51884;DHT22;37915;53.254;6.598;2023-08-06T05:08:36;14.00;99.90
51884;DHT22;37915;53.254;6.598;2023-08-06T05:11:02;14.00;99.90
51884;DHT22;37915;53.254;6.598;2023-08-06T05:13:27;14.10;99.90
51884;DHT22;37915;53.254;6.598;2023-08-06T05:15:53;14.00;99.90
51884;DHT22;37915;53.254;6.598;2023-08-06T05:18:19;14.00;99.90
51884;DHT22;37915;53.254;6.598;2023-08-06T05:20:45;14.00;99.90
51884;DHT22;37915;53.254;6.598;2023-08-06T05:23:11;14.00;99.90
51884;DHT22;37915;53.254;6.598;2023-08-06T05:25:37;14.00;99.90
51884;DHT22;37915;53.254;6.598;2023-08-06T05:28:03;14.00;99.90
51884;DHT22;37915;53.254;6.598;2023-08-06T05:30:29;14.00;99.90
51884;DHT22;37915;53.254;6.598;2023-08-06T05:32:55;14.00;99.90
51884;DHT22;37915;53.254;6.598;2023-08-06T05:35:21;14.00;99.90
51884;DHT22;37915;53.254;6.598;2023-08-06T05:37:47;14.00;99.90
51884;DHT22;37915;53.254;6.598;2023-08-06T05:40:14;14.00;99.90
51884;DHT22;37915;53.254;6.598;2023-08-06T05:42:40;14.00;99.90
51884;DHT22;37915;53.254;6.598;2023-08-06T05:45:07;14.00;99.90
51884;DHT22;37915;53.254;6.598;2023-08-06T05:47:33;14.10;99.90
51884;DHT22;37915;53.254;6.598;2023-08-06T05:49:58;14.10;99.90
51884;DHT22;37915;53.254;6.598;2023-08-06T05:52:24;14.10;99.90
51884;DHT22;37915;53.254;6.598;2023-08-06T05:54:50;14.20;99.90
51884;DHT22;37915;53.254;6.598;2023-08-06T05:57:16;14.30;99.90
51884;DHT22;37915;53.254;6.598;2023-08-06T05:59:42;14.40;99.90
51884;DHT22;37915;53.254;6.598;2023-08-06T06:02:08;14.50;99.90
51884;DHT22;37915;53.254;6.598;2023-08-06T06:04:33;14.50;99.90
51884;DHT22;37915;53.254;6.598;2023-08-06T06:06:59;14.50;99.90
51884;DHT22;37915;53.254;6.598;2023-08-06T06:09:25;14.60;99.90
51884;DHT22;37915;53.254;6.598;2023-08-06T06:11:50;14.60;99.90
51884;DHT22;37915;53.254;6.598;2023-08-06T06:14:17;14.70;99.90
51884;DHT22;37915;53.254;6.598;2023-08-06T06:16:43;14.70;99.90
51884;DHT22;37915;53.254;6.598;2023-08-06T06:19:09;14.80;99.90
51884;DHT22;37915;53.254;6.598;2023-08-06T06:21:34;14.90;99.90
51884;DHT22;37915;53.254;6.598;2023-08-06T06:24:00;14.90;99.90
51884;DHT22;37915;53.254;6.598;2023-08-06T06:26:26;14.90;99.90
51884;DHT22;37915;53.254;6.598;2023-08-06T06:28:51;15.00;99.90
51884;DHT22;37915;53.254;6.598;2023-08-06T06:31:17;15.00;99.90
51884;DHT22;37915;53.254;6.598;2023-08-06T06:33:43;15.10;99.90
51884;DHT22;37915;53.254;6.598;2023-08-06T06:36:08;15.10;99.90
51884;DHT22;37915;53.254;6.598;2023-08-06T06:38:36;15.10;99.90
51884;DHT22;37915;53.254;6.598;2023-08-06T06:41:01;15.20;99.90
51884;DHT22;37915;53.254;6.598;2023-08-06T06:43:29;15.30;99.90
51884;DHT22;37915;53.254;6.598;2023-08-06T06:45:58;15.30;99.90
51884;DHT22;37915;53.254;6.598;2023-08-06T06:48:29;15.40;99.90
51884;DHT22;37915;53.254;6.598;2023-08-06T06:50:55;15.40;99.90
51884;DHT22;37915;53.254;6.598;2023-08-06T06:53:21;15.40;99.90
51884;DHT22;37915;53.254;6.598;2023-08-06T06:55:53;15.40;99.90
51884;DHT22;37915;53.254;6.598;2023-08-06T06:58:19;15.50;99.90
51884;DHT22;37915;53.254;6.598;2023-08-06T07:00:48;15.50;99.90
51884;DHT22;37915;53.254;6.598;2023-08-06T07:03:15;15.50;99.90
51884;DHT22;37915;53.254;6.598;2023-08-06T07:05:41;15.50;99.90
51884;DHT22;37915;53.254;6.598;2023-08-06T07:08:07;15.60;99.90
51884;DHT22;37915;53.254;6.598;2023-08-06T07:10:33;15.60;99.90
51884;DHT22;37915;53.254;6.598;2023-08-06T07:12:58;15.70;99.90
51884;DHT22;37915;53.254;6.598;2023-08-06T07:15:24;15.80;99.90
51884;DHT22;37915;53.254;6.598;2023-08-06T07:17:50;15.80;99.90
51884;DHT22;37915;53.254;6.598;2023-08-06T07:20:15;15.90;99.90
51884;DHT22;37915;53.254;6.598;2023-08-06T07:22:41;15.90;99.90
51884;DHT22;37915;53.254;6.598;2023-08-06T07:25:07;15.90;99.90
51884;DHT22;37915;53.254;6.598;2023-08-06T07:27:33;15.90;99.90
51884;DHT22;37915;53.254;6.598;2023-08-06T07:29:59;16.00;99.90
51884;DHT22;37915;53.254;6.598;2023-08-06T07:32:24;16.00;99.90
51884;DHT22;37915;53.254;6.598;2023-08-06T07:34:50;16.00;99.90
51884;DHT22;37915;53.254;6.598;2023-08-06T07:37:22;16.10;99.90
51884;DHT22;37915;53.254;6.598;2023-08-06T07:39:48;16.20;99.90
51884;DHT22;37915;53.254;6.598;2023-08-06T07:42:14;16.40;99.90
51884;DHT22;37915;53.254;6.598;2023-08-06T07:44:39;16.50;99.90
51884;DHT22;37915;53.254;6.598;2023-08-06T07:47:05;16.70;99.90
51884;DHT22;37915;53.254;6.598;2023-08-06T07:49:31;16.80;99.90
51884;DHT22;37915;53.254;6.598;2023-08-06T07:51:56;17.00;99.90
51884;DHT22;37915;53.254;6.598;2023-08-06T07:54:22;17.20;99.90
51884;DHT22;37915;53.254;6.598;2023-08-06T07:56:50;17.20;99.90
51884;DHT22;37915;53.254;6.598;2023-08-06T07:59:15;17.20;99.90
51884;DHT22;37915;53.254;6.598;2023-08-06T08:01:41;17.20;99.90
51884;DHT22;37915;53.254;6.598;2023-08-06T08:04:07;17.30;99.90
51884;DHT22;37915;53.254;6.598;2023-08-06T08:06:33;17.30;99.90
51884;DHT22;37915;53.254;6.598;2023-08-06T08:08:59;17.40;99.90
51884;DHT22;37915;53.254;6.598;2023-08-06T08:11:26;17.40;99.90
51884;DHT22;37915;53.254;6.598;2023-08-06T08:13:52;17.40;99.90
51884;DHT22;37915;53.254;6.598;2023-08-06T08:16:17;17.50;99.90
51884;DHT22;37915;53.254;6.598;2023-08-06T08:18:43;17.60;99.90
51884;DHT22;37915;53.254;6.598;2023-08-06T08:21:09;17.70;99.90
51884;DHT22;37915;53.254;6.598;2023-08-06T08:23:34;17.70;99.90
51884;DHT22;37915;53.254;6.598;2023-08-06T08:26:00;17.70;99.90
51884;DHT22;37915;53.254;6.598;2023-08-06T08:28:27;17.80;99.90
51884;DHT22;37915;53.254;6.598;2023-08-06T08:30:53;17.80;99.90
51884;DHT22;37915;53.254;6.598;2023-08-06T08:33:18;17.90;99.90
51884;DHT22;37915;53.254;6.598;2023-08-06T08:35:45;18.00;99.90
51884;DHT22;37915;53.254;6.598;2023-08-06T08:38:11;18.10;99.90
51884;DHT22;37915;53.254;6.598;2023-08-06T08:40:44;18.30;99.90
51884;DHT22;37915;53.254;6.598;2023-08-06T08:43:11;18.40;99.90
51884;DHT22;37915;53.254;6.598;2023-08-06T08:45:40;18.50;99.90
51884;DHT22;37915;53.254;6.598;2023-08-06T08:48:08;18.50;99.90
51884;DHT22;37915;53.254;6.598;2023-08-06T08:50:35;18.60;99.90
51884;DHT22;37915;53.254;6.598;2023-08-06T08:53:01;18.60;99.90
51884;DHT22;37915;53.254;6.598;2023-08-06T08:55:27;18.60;99.90
51884;DHT22;37915;53.254;6.598;2023-08-06T08:57:53;18.60;99.90
51884;DHT22;37915;53.254;6.598;2023-08-06T09:00:19;18.70;99.90
51884;DHT22;37915;53.254;6.598;2023-08-06T09:02:45;18.70;99.90
51884;DHT22;37915;53.254;6.598;2023-08-06T09:05:11;18.70;99.90
51884;DHT22;37915;53.254;6.598;2023-08-06T09:07:48;18.70;99.90
51884;DHT22;37915;53.254;6.598;2023-08-06T09:10:16;18.80;99.90
51884;DHT22;37915;53.254;6.598;2023-08-06T09:12:45;18.90;99.90
51884;DHT22;37915;53.254;6.598;2023-08-06T09:15:12;19.00;99.90
51884;DHT22;37915;53.254;6.598;2023-08-06T09:17:38;19.00;99.90
51884;DHT22;37915;53.254;6.598;2023-08-06T09:20:11;19.10;99.90
51884;DHT22;37915;53.254;6.598;2023-08-06T09:22:37;19.10;99.90
51884;DHT22;37915;53.254;6.598;2023-08-06T09:25:04;19.20;99.90
51884;DHT22;37915;53.254;6.598;2023-08-06T09:27:35;19.20;99.90
51884;DHT22;37915;53.254;6.598;2023-08-06T09:30:02;19.30;99.90
51884;DHT22;37915;53.254;6.598;2023-08-06T09:32:47;19.40;99.90
51884;DHT22;37915;53.254;6.598;2023-08-06T09:35:17;19.50;99.90
51884;DHT22;37915;53.254;6.598;2023-08-06T09:37:43;19.60;99.90
51884;DHT22;37915;53.254;6.598;2023-08-06T09:42:52;19.60;99.90
51884;DHT22;37915;53.254;6.598;2023-08-06T09:45:17;19.60;99.90
51884;DHT22;37915;53.254;6.598;2023-08-06T09:47:43;19.60;99.90
51884;DHT22;37915;53.254;6.598;2023-08-06T09:50:19;19.70;99.90
51884;DHT22;37915;53.254;6.598;2023-08-06T09:52:46;19.70;99.90
51884;DHT22;37915;53.254;6.598;2023-08-06T09:55:13;19.80;99.90
51884;DHT22;37915;53.254;6.598;2023-08-06T09:57:42;19.70;99.90
51884;DHT22;37915;53.254;6.598;2023-08-06T10:00:09;19.80;99.90
51884;DHT22;37915;53.254;6.598;2023-08-06T10:02:40;19.90;99.90
51884;DHT22;37915;53.254;6.598;2023-08-06T10:05:07;19.90;99.90
51884;DHT22;37915;53.254;6.598;2023-08-06T10:07:34;19.90;99.90
51884;DHT22;37915;53.254;6.598;2023-08-06T10:10:00;20.00;99.90
51884;DHT22;37915;53.254;6.598;2023-08-06T10:12:28;20.00;99.90
51884;DHT22;37915;53.254;6.598;2023-08-06T10:14:57;20.00;99.90
51884;DHT22;37915;53.254;6.598;2023-08-06T10:17:25;20.00;99.90
51884;DHT22;37915;53.254;6.598;2023-08-06T10:19:52;20.00;99.90
51884;DHT22;37915;53.254;6.598;2023-08-06T10:22:20;20.10;99.90
51884;DHT22;37915;53.254;6.598;2023-08-06T10:24:47;20.20;99.90
51884;DHT22;37915;53.254;6.598;2023-08-06T10:27:13;20.20;99.90
51884;DHT22;37915;53.254;6.598;2023-08-06T10:29:39;20.20;99.90
51884;DHT22;37915;53.254;6.598;2023-08-06T10:32:05;20.30;99.90
51884;DHT22;37915;53.254;6.598;2023-08-06T10:34:53;20.30;99.90
51884;DHT22;37915;53.254;6.598;2023-08-06T10:37:19;20.40;99.90
51884;DHT22;37915;53.254;6.598;2023-08-06T10:39:49;20.40;99.90
51884;DHT22;37915;53.254;6.598;2023-08-06T10:42:42;20.40;99.90
51884;DHT22;37915;53.254;6.598;2023-08-06T10:45:15;20.50;99.90
51884;DHT22;37915;53.254;6.598;2023-08-06T10:47:42;20.40;99.90
51884;DHT22;37915;53.254;6.598;2023-08-06T10:50:15;20.50;99.90
51884;DHT22;37915;53.254;6.598;2023-08-06T10:52:45;20.60;99.90
51884;DHT22;37915;53.254;6.598;2023-08-06T10:55:11;20.60;99.90
51884;DHT22;37915;53.254;6.598;2023-08-06T10:57:37;20.70;99.90
51884;DHT22;37915;53.254;6.598;2023-08-06T11:00:06;20.80;99.90
51884;DHT22;37915;53.254;6.598;2023-08-06T11:02:34;20.80;99.90
51884;DHT22;37915;53.254;6.598;2023-08-06T11:05:10;20.80;99.90
51884;DHT22;37915;53.254;6.598;2023-08-06T11:07:37;20.80;99.90
51884;DHT22;37915;53.254;6.598;2023-08-06T11:10:11;20.90;99.90
51884;DHT22;37915;53.254;6.598;2023-08-06T11:12:38;20.90;99.90
51884;DHT22;37915;53.254;6.598;2023-08-06T11:15:04;20.90;99.90
51884;DHT22;37915;53.254;6.598;2023-08-06T11:17:31;20.90;99.90
51884;DHT22;37915;53.254;6.598;2023-08-06T11:20:04;20.90;99.90
51884;DHT22;37915;53.254;6.598;2023-08-06T11:22:30;20.90;99.90
51884;DHT22;37915;53.254;6.598;2023-08-06T11:24:56;20.90;99.90
51884;DHT22;37915;53.254;6.598;2023-08-06T11:27:22;20.80;99.90
51884;DHT22;37915;53.254;6.598;2023-08-06T11:29:48;20.80;99.90
51884;DHT22;37915;53.254;6.598;2023-08-06T11:32:14;20.90;99.90
51884;DHT22;37915;53.254;6.598;2023-08-06T11:34:40;20.90;99.90
51884;DHT22;37915;53.254;6.598;2023-08-06T11:37:07;20.90;99.90
51884;DHT22;37915;53.254;6.598;2023-08-06T11:39:37;20.90;99.90
51884;DHT22;37915;53.254;6.598;2023-08-06T11:42:07;20.90;99.90
51884;DHT22;37915;53.254;6.598;2023-08-06T11:44:36;21.00;99.90
51884;DHT22;37915;53.254;6.598;2023-08-06T11:47:04;21.10;99.90
51884;DHT22;37915;53.254;6.598;2023-08-06T11:49:47;21.20;99.90
51884;DHT22;37915;53.254;6.598;2023-08-06T11:52:17;21.30;99.90
51884;DHT22;37915;53.254;6.598;2023-08-06T11:54:59;21.20;99.90
51884;DHT22;37915;53.254;6.598;2023-08-06T11:57:25;21.10;99.90
51884;DHT22;37915;53.254;6.598;2023-08-06T11:59:50;21.00;99.90
51884;DHT22;37915;53.254;6.598;2023-08-06T12:02:16;21.10;99.90
51884;DHT22;37915;53.254;6.598;2023-08-06T12:05:03;21.10;99.90
51884;DHT22;37915;53.254;6.598;2023-08-06T12:07:31;21.10;99.90
51884;DHT22;37915;53.254;6.598;2023-08-06T12:09:58;21.00;99.90
51884;DHT22;37915;53.254;6.598;2023-08-06T12:12:24;21.00;99.90
51884;DHT22;37915;53.254;6.598;2023-08-06T12:14:50;21.00;99.90
51884;DHT22;37915;53.254;6.598;2023-08-06T12:17:16;21.10;99.90
51884;DHT22;37915;53.254;6.598;2023-08-06T12:19:41;21.20;99.90
51884;DHT22;37915;53.254;6.598;2023-08-06T12:22:07;21.40;99.90
51884;DHT22;37915;53.254;6.598;2023-08-06T12:24:33;21.50;99.90
51884;DHT22;37915;53.254;6.598;2023-08-06T12:26:59;21.60;99.90
51884;DHT22;37915;53.254;6.598;2023-08-06T12:29:27;21.80;99.90
51884;DHT22;37915;53.254;6.598;2023-08-06T12:31:53;21.80;99.90
51884;DHT22;37915;53.254;6.598;2023-08-06T12:34:19;21.90;99.90
51884;DHT22;37915;53.254;6.598;2023-08-06T12:36:45;21.90;99.90
51884;DHT22;37915;53.254;6.598;2023-08-06T12:39:10;21.90;99.90
51884;DHT22;37915;53.254;6.598;2023-08-06T12:41:36;21.80;99.90
51884;DHT22;37915;53.254;6.598;2023-08-06T12:44:02;21.90;99.90
51884;DHT22;37915;53.254;6.598;2023-08-06T12:46:28;21.90;99.90
51884;DHT22;37915;53.254;6.598;2023-08-06T12:48:53;21.90;99.90
51884;DHT22;37915;53.254;6.598;2023-08-06T12:51:19;22.00;99.90
51884;DHT22;37915;53.254;6.598;2023-08-06T12:53:44;21.90;99.90
51884;DHT22;37915;53.254;6.598;2023-08-06T12:56:10;21.90;99.90
51884;DHT22;37915;53.254;6.598;2023-08-06T12:58:36;21.90;99.90
51884;DHT22;37915;53.254;6.598;2023-08-06T13:01:01;22.00;99.90
51884;DHT22;37915;53.254;6.598;2023-08-06T13:03:27;22.10;99.90
51884;DHT22;37915;53.254;6.598;2023-08-06T13:05:53;22.10;99.90
51884;DHT22;37915;53.254;6.598;2023-08-06T13:08:19;22.10;99.90
51884;DHT22;37915;53.254;6.598;2023-08-06T13:10:44;22.20;99.90
51884;DHT22;37915;53.254;6.598;2023-08-06T13:13:10;22.30;99.90
51884;DHT22;37915;53.254;6.598;2023-08-06T13:15:36;22.30;99.90
51884;DHT22;37915;53.254;6.598;2023-08-06T13:18:02;22.40;99.90
51884;DHT22;37915;53.254;6.598;2023-08-06T13:20:30;22.50;99.90
51884;DHT22;37915;53.254;6.598;2023-08-06T13:22:57;22.60;99.90
51884;DHT22;37915;53.254;6.598;2023-08-06T13:25:23;22.60;99.90
51884;DHT22;37915;53.254;6.598;2023-08-06T13:27:49;22.60;99.90
51884;DHT22;37915;53.254;6.598;2023-08-06T13:30:15;22.60;99.90
51884;DHT22;37915;53.254;6.598;2023-08-06T13:32:43;22.60;99.90
51884;DHT22;37915;53.254;6.598;2023-08-06T13:35:09;22.60;99.90
51884;DHT22;37915;53.254;6.598;2023-08-06T13:37:35;22.70;99.90
51884;DHT22;37915;53.254;6.598;2023-08-06T13:40:01;22.70;99.90
51884;DHT22;37915;53.254;6.598;2023-08-06T13:42:26;22.80;99.90
51884;DHT22;37915;53.254;6.598;2023-08-06T13:44:52;22.90;99.90
51884;DHT22;37915;53.254;6.598;2023-08-06T13:47:18;23.00;99.90
51884;DHT22;37915;53.254;6.598;2023-08-06T13:49:44;23.00;99.90
51884;DHT22;37915;53.254;6.598;2023-08-06T13:52:09;22.90;99.90
51884;DHT22;37915;53.254;6.598;2023-08-06T13:54:35;22.80;99.90
51884;DHT22;37915;53.254;6.598;2023-08-06T13:57:00;22.70;99.90
51884;DHT22;37915;53.254;6.598;2023-08-06T13:59:26;22.60;99.90
51884;DHT22;37915;53.254;6.598;2023-08-06T14:01:52;22.40;99.90
51884;DHT22;37915;53.254;6.598;2023-08-06T14:04:19;22.00;99.90
51884;DHT22;37915;53.254;6.598;2023-08-06T14:06:46;21.90;99.90
51884;DHT22;37915;53.254;6.598;2023-08-06T14:09:12;21.90;99.90
51884;DHT22;37915;53.254;6.598;2023-08-06T14:11:40;22.00;99.90
51884;DHT22;37915;53.254;6.598;2023-08-06T14:14:05;22.20;99.90
51884;DHT22;37915;53.254;6.598;2023-08-06T14:16:31;22.30;99.90
51884;DHT22;37915;53.254;6.598;2023-08-06T14:18:56;22.50;99.90
51884;DHT22;37915;53.254;6.598;2023-08-06T14:21:22;22.60;99.90
51884;DHT22;37915;53.254;6.598;2023-08-06T14:23:48;22.70;99.90
51884;DHT22;37915;53.254;6.598;2023-08-06T14:26:13;22.70;99.90
51884;DHT22;37915;53.254;6.598;2023-08-06T14:28:40;22.80;99.90
51884;DHT22;37915;53.254;6.598;2023-08-06T14:31:06;22.80;99.90
51884;DHT22;37915;53.254;6.598;2023-08-06T14:33:32;22.70;99.90
51884;DHT22;37915;53.254;6.598;2023-08-06T14:35:57;22.70;99.90
51884;DHT22;37915;53.254;6.598;2023-08-06T14:38:23;22.70;99.90
51884;DHT22;37915;53.254;6.598;2023-08-06T14:40:49;22.80;99.90
51884;DHT22;37915;53.254;6.598;2023-08-06T14:43:15;22.80;99.90
51884;DHT22;37915;53.254;6.598;2023-08-06T14:45:41;22.80;99.90
51884;DHT22;37915;53.254;6.598;2023-08-06T14:48:07;22.80;99.90
51884;DHT22;37915;53.254;6.598;2023-08-06T14:50:32;22.80;99.90
51884;DHT22;37915;53.254;6.598;2023-08-06T14:52:58;22.80;99.90
51884;DHT22;37915;53.254;6.598;2023-08-06T14:55:28;22.80;99.90
51884;DHT22;37915;53.254;6.598;2023-08-06T14:57:54;22.80;99.90
51884;DHT22;37915;53.254;6.598;2023-08-06T15:00:20;22.90;99.90
51884;DHT22;37915;53.254;6.598;2023-08-06T15:02:46;22.80;99.90
51884;DHT22;37915;53.254;6.598;2023-08-06T15:05:12;22.70;99.90
51884;DHT22;37915;53.254;6.598;2023-08-06T15:07:37;22.60;99.90
51884;DHT22;37915;53.254;6.598;2023-08-06T15:10:05;22.50;99.90
51884;DHT22;37915;53.254;6.598;2023-08-06T15:12:31;22.50;99.90
51884;DHT22;37915;53.254;6.598;2023-08-06T15:14:58;22.50;99.90
51884;DHT22;37915;53.254;6.598;2023-08-06T15:17:24;22.40;99.90
51884;DHT22;37915;53.254;6.598;2023-08-06T15:19:50;22.20;99.90
51884;DHT22;37915;53.254;6.598;2023-08-06T15:22:16;22.10;99.90
51884;DHT22;37915;53.254;6.598;2023-08-06T15:24:42;22.00;99.90
51884;DHT22;37915;53.254;6.598;2023-08-06T15:27:08;21.90;99.90
51884;DHT22;37915;53.254;6.598;2023-08-06T15:29:34;21.80;99.90
51884;DHT22;37915;53.254;6.598;2023-08-06T15:32:00;21.70;99.90
51884;DHT22;37915;53.254;6.598;2023-08-06T15:34:26;21.70;99.90
51884;DHT22;37915;53.254;6.598;2023-08-06T15:36:51;21.70;99.90